Time;durP1;ratioP1;P1;durP2;ratioP2;P2;SDS_P1;SDS_P2;PMS_P1;PMS_P2;Temp;Humidity;BMP_temperature;BMP_pressure;BME280_temperature;BME280_humidity;BME280_pressure;Samples;Min_cycle;Max_cycle;Signal;HPM_P1;HPM_P2
2023/04/06 00:00:23;;;;;;;21.02;11.95;;;;;;;1.96;74.12;101718.31;4972664;28;20042;-84
2023/04/06 00:02:48;;;;;;;23.33;11.75;;;;;;;1.97;74.31;101714.72;4988657;28;20398;-84
2023/04/06 00:05:14;;;;;;;18.88;11.35;;;;;;;1.95;74.38;101712.97;4989175;28;20042;-85
2023/04/06 00:07:40;;;;;;;18.63;10.93;;;;;;;1.95;74.14;101712.97;4984073;28;20034;-84
2023/04/06 00:10:06;;;;;;;21.45;11.75;;;;;;;1.98;74.45;101712.91;5008924;28;20061;-84
2023/04/06 00:12:32;;;;;;;23.40;11.98;;;;;;;1.94;73.60;101704.03;4992172;28;20481;-84
2023/04/06 00:14:57;;;;;;;21.23;11.68;;;;;;;1.96;73.41;101696.84;5005444;28;20063;-84
2023/04/06 00:17:22;;;;;;;20.55;10.73;;;;;;;2.00;73.11;101703.00;5002738;28;20045;-85
2023/04/06 00:19:48;;;;;;;20.85;10.90;;;;;;;1.96;73.91;101698.66;4986149;28;20462;-85
2023/04/06 00:22:13;;;;;;;26.85;13.63;;;;;;;1.90;74.58;101696.97;5007202;28;20548;-84
2023/04/06 00:24:38;;;;;;;20.58;10.75;;;;;;;1.78;75.03;101689.22;5008605;28;20048;-85
2023/04/06 00:27:04;;;;;;;15.75;10.32;;;;;;;1.81;74.95;101698.97;4987368;28;20045;-84
2023/04/06 00:29:29;;;;;;;18.25;10.93;;;;;;;1.76;74.91;101683.88;4972149;28;20132;-85
2023/04/06 00:31:55;;;;;;;24.23;12.00;;;;;;;1.82;75.25;101695.38;4987305;28;20026;-85
2023/04/06 00:34:20;;;;;;;20.13;10.70;;;;;;;1.76;75.46;101683.00;5003007;28;20029;-84
2023/04/06 00:36:45;;;;;;;19.17;10.82;;;;;;;1.74;74.90;101680.34;4971050;28;20034;-85
2023/04/06 00:39:11;;;;;;;18.42;10.02;;;;;;;1.72;75.48;101674.13;4972883;28;20025;-84
2023/04/06 00:41:38;;;;;;;19.05;10.80;;;;;;;1.72;75.54;101679.50;4989882;28;20053;-85
2023/04/06 00:44:04;;;;;;;19.48;11.25;;;;;;;1.73;75.97;101675.91;4989949;28;20497;-85
2023/04/06 00:46:30;;;;;;;18.63;10.05;;;;;;;1.72;74.82;101676.81;4987356;28;20042;-85
2023/04/06 00:48:56;;;;;;;19.52;10.48;;;;;;;1.75;73.66;101668.69;4991207;28;20509;-85
2023/04/06 00:51:22;;;;;;;23.70;12.40;;;;;;;1.78;73.98;101671.31;4990444;28;20105;-84
2023/04/06 00:53:48;;;;;;;21.00;9.90;;;;;;;1.83;73.20;101673.03;4991379;28;20042;-85
2023/04/06 00:56:13;;;;;;;17.50;9.73;;;;;;;1.84;73.40;101667.63;4991427;28;20079;-85
2023/04/06 00:58:51;;;;;;;19.17;10.30;;;;;;;1.82;72.99;101661.41;5004217;28;20481;-85
2023/04/06 01:01:16;;;;;;;22.23;9.73;;;;;;;1.85;72.75;101657.75;4974126;28;20036;-85
2023/04/06 01:03:44;;;;;;;20.83;10.50;;;;;;;1.86;72.82;101656.84;4977420;28;20037;-84
2023/04/06 01:06:11;;;;;;;17.15;9.35;;;;;;;1.86;72.97;101651.47;4972430;28;20491;-85
2023/04/06 01:08:39;;;;;;;21.33;9.02;;;;;;;1.87;72.92;101650.56;4991923;28;20108;-85
2023/04/06 01:11:17;;;;;;;19.27;10.23;;;;;;;1.88;73.74;101647.84;5006375;28;20061;-84
2023/04/06 01:13:44;;;;;;;23.45;10.15;;;;;;;1.89;72.64;101652.28;4993638;28;20030;-85
2023/04/06 01:16:21;;;;;;;20.42;9.73;;;;;;;1.86;73.47;101646.97;4992320;28;20365;-85
2023/04/06 01:19:09;;;;;;;17.65;9.80;;;;;;;1.88;72.76;101641.59;4989411;28;20046;-85
2023/04/06 01:21:36;;;;;;;18.17;9.75;;;;;;;1.91;73.83;101649.56;4990654;28;20437;-84
2023/04/06 01:24:13;;;;;;;19.27;10.20;;;;;;;1.92;73.12;101641.50;5007976;28;20116;-85
2023/04/06 01:27:00;;;;;;;18.08;9.55;;;;;;;1.93;73.25;101635.19;5001357;28;20050;-84
2023/04/06 01:29:32;;;;;;;19.67;9.63;;;;;;;1.89;72.88;101630.81;4972672;28;20374;-85
2023/04/06 01:31:59;;;;;;;18.45;9.88;;;;;;;1.92;73.54;101636.13;4987875;28;20129;-85
2023/04/06 01:34:25;;;;;;;19.25;10.05;;;;;;;1.92;73.89;101638.81;4954604;28;20073;-84
2023/04/06 01:36:52;;;;;;;18.48;9.23;;;;;;;1.92;73.47;101637.94;4979088;28;20034;-84
2023/04/06 01:39:24;;;;;;;21.08;10.23;;;;;;;1.93;73.24;101637.00;5007688;28;20088;-84
2023/04/06 01:41:49;;;;;;;22.83;9.48;;;;;;;1.95;73.50;101632.47;5006874;28;20109;-84
2023/04/06 01:44:20;;;;;;;21.17;11.10;;;;;;;1.99;72.63;101631.47;4993528;28;20038;-84
2023/04/06 01:46:51;;;;;;;19.70;10.07;;;;;;;2.01;72.86;101619.81;5010901;28;20081;-84
2023/04/06 01:49:18;;;;;;;22.48;10.98;;;;;;;2.04;72.50;101621.50;4978684;28;20037;-83
2023/04/06 01:51:48;;;;;;;18.90;10.52;;;;;;;2.08;73.08;101614.28;5006271;28;20054;-84
2023/04/06 01:54:13;;;;;;;20.33;10.82;;;;;;;2.04;73.09;101608.97;5007716;28;20081;-84
2023/04/06 01:57:01;;;;;;;18.85;10.50;;;;;;;2.10;72.74;101612.41;4989269;28;20113;-84
2023/04/06 01:59:43;;;;;;;22.92;10.55;;;;;;;2.13;73.59;101605.19;4989885;28;20049;-84
2023/04/06 02:02:16;;;;;;;22.42;10.27;;;;;;;2.14;74.26;101601.56;4975614;28;20036;-84
2023/04/06 02:04:51;;;;;;;24.27;11.38;;;;;;;2.13;74.30;101590.88;4976756;28;20522;-84
2023/04/06 02:07:17;;;;;;;23.10;10.80;;;;;;;2.12;74.16;101586.44;4999859;28;20088;-84
2023/04/06 02:09:42;;;;;;;23.13;11.15;;;;;;;2.18;75.60;101594.31;5010990;28;20026;-84
2023/04/06 02:12:14;;;;;;;22.30;12.13;;;;;;;2.21;74.46;101589.78;5009511;28;20037;-84
2023/04/06 02:14:39;;;;;;;23.05;12.13;;;;;;;2.24;74.35;101588.81;4996369;28;20038;-84
2023/04/06 02:17:05;;;;;;;22.58;11.25;;;;;;;2.24;75.15;101592.38;4974192;28;20451;-85
2023/04/06 02:19:31;;;;;;;23.42;11.57;;;;;;;2.23;74.31;101593.28;4989934;28;20038;-84
2023/04/06 02:21:56;;;;;;;27.38;12.35;;;;;;;2.23;74.30;101577.16;4974329;28;20423;-84
2023/04/06 02:24:22;;;;;;;21.83;11.20;;;;;;;2.28;74.72;101588.69;4991631;28;20045;-84
2023/04/06 02:26:47;;;;;;;22.25;11.02;;;;;;;2.26;75.86;101576.22;4993455;28;20132;-84
2023/04/06 02:29:12;;;;;;;19.92;11.38;;;;;;;2.24;75.34;101580.78;5009700;28;20431;-84
2023/04/06 02:31:38;;;;;;;19.13;11.68;;;;;;;2.26;75.49;101574.41;5000989;28;20069;-83
2023/04/06 02:34:04;;;;;;;21.05;11.35;;;;;;;2.29;74.70;101578.84;4990181;28;20077;-84
2023/04/06 02:36:31;;;;;;;21.77;11.15;;;;;;;2.25;75.12;101566.41;4993042;28;20134;-84
2023/04/06 02:38:56;;;;;;;21.50;12.00;;;;;;;2.30;74.62;101569.84;4994182;28;20077;-84
2023/04/06 02:41:22;;;;;;;22.23;11.68;;;;;;;2.32;74.55;101559.06;5010294;28;20046;-83
2023/04/06 02:43:47;;;;;;;26.35;11.73;;;;;;;2.36;74.65;101556.25;4994016;28;20489;-84
2023/04/06 02:46:23;;;;;;;23.95;11.95;;;;;;;2.38;75.23;101561.56;4993571;28;20536;-84
2023/04/06 02:48:48;;;;;;;25.23;12.57;;;;;;;2.36;75.53;101558.94;4996687;28;20098;-84
2023/04/06 02:51:13;;;;;;;22.95;12.75;;;;;;;2.36;74.64;101550.88;5009066;28;20037;-83
2023/04/06 02:53:42;;;;;;;28.05;12.75;;;;;;;2.38;75.84;101546.38;4990373;28;20089;-84
2023/04/06 02:56:07;;;;;;;25.30;12.73;;;;;;;2.41;74.70;101548.97;4973941;28;20483;-83
2023/04/06 02:58:42;;;;;;;24.88;12.35;;;;;;;2.43;75.16;101539.06;4975998;28;20027;-84
2023/04/06 03:01:07;;;;;;;24.13;12.30;;;;;;;2.42;73.68;101534.59;4989363;28;20060;-84
2023/04/06 03:03:34;;;;;;;26.42;13.55;;;;;;;2.45;74.71;101534.53;4987661;28;20030;-84
2023/04/06 03:06:02;;;;;;;21.27;12.07;;;;;;;2.52;74.20;101537.94;4984971;28;20031;-84
2023/04/06 03:08:30;;;;;;;23.25;12.10;;;;;;;2.50;75.91;101537.97;4990331;28;20050;-84
2023/04/06 03:10:55;;;;;;;32.78;12.18;;;;;;;2.52;75.74;101543.31;4993252;28;20551;-84
2023/04/06 03:13:26;;;;;;;25.42;12.73;;;;;;;2.51;76.01;101533.47;5008737;28;20030;-84
2023/04/06 03:15:55;;;;;;;24.20;12.27;;;;;;;2.51;74.78;101537.03;5008803;28;20048;-84
2023/04/06 03:18:23;;;;;;;27.75;13.45;;;;;;;2.54;75.11;101536.97;4982989;28;20486;-84
2023/04/06 03:20:50;;;;;;;23.95;12.75;;;;;;;2.58;74.14;101540.44;5005665;28;20417;-84
2023/04/06 03:23:17;;;;;;;24.83;13.23;;;;;;;2.57;75.54;101533.31;4992783;28;20080;-84
2023/04/06 03:25:44;;;;;;;25.02;13.77;;;;;;;2.59;75.01;101530.56;4978490;28;20046;-84
2023/04/06 03:28:14;;;;;;;24.13;13.10;;;;;;;2.64;75.45;101523.25;4974183;28;20045;-84
2023/04/06 03:30:49;;;;;;;26.73;13.55;;;;;;;2.66;75.49;101518.72;4973612;28;20030;-84
2023/04/06 03:33:18;;;;;;;30.80;14.65;;;;;;;2.64;76.11;101517.91;4989563;28;20049;-84
2023/04/06 03:35:51;;;;;;;27.13;14.52;;;;;;;2.67;75.21;101520.50;4974751;28;20466;-84
2023/04/06 03:38:17;;;;;;;31.08;15.00;;;;;;;2.66;74.82;101516.03;4988929;28;20034;-84
2023/04/06 03:40:42;;;;;;;27.13;13.68;;;;;;;2.67;73.98;101516.00;4990022;28;20032;-84
2023/04/06 03:43:08;;;;;;;26.98;12.93;;;;;;;2.69;73.41;101526.69;5006584;28;20145;-83
2023/04/06 03:45:35;;;;;;;30.30;13.68;;;;;;;2.70;73.57;101515.91;5008532;28;20462;-84
2023/04/06 03:48:01;;;;;;;32.60;14.20;;;;;;;2.70;73.97;101513.22;4998552;28;20037;-84
2023/04/06 03:50:27;;;;;;;29.00;14.02;;;;;;;2.72;74.08;101516.75;4973686;28;20108;-84
2023/04/06 03:52:52;;;;;;;30.25;13.75;;;;;;;2.69;74.30;101502.53;5001239;28;20462;-84
2023/04/06 03:55:17;;;;;;;22.65;13.20;;;;;;;2.71;74.60;101515.00;4992730;28;20037;-83
2023/04/06 03:57:43;;;;;;;26.08;13.75;;;;;;;2.72;74.45;101514.06;4991642;28;20137;-84
2023/04/06 04:00:09;;;;;;;30.52;14.25;;;;;;;2.73;74.65;101514.94;5008457;28;20030;-84
2023/04/06 04:02:40;;;;;;;27.02;13.63;;;;;;;2.71;75.06;101515.00;5007652;28;20129;-83
2023/04/06 04:05:09;;;;;;;23.83;12.80;;;;;;;2.63;74.70;101514.34;4999401;28;20116;-84
2023/04/06 04:07:36;;;;;;;26.35;14.35;;;;;;;2.65;74.53;101517.84;4988455;28;20294;-84
2023/04/06 04:10:02;;;;;;;25.40;14.05;;;;;;;2.64;74.70;101507.16;5005045;28;20112;-84
2023/04/06 04:12:29;;;;;;;24.50;12.52;;;;;;;2.57;75.37;101506.47;4989438;28;20033;-84
2023/04/06 04:14:56;;;;;;;27.88;13.80;;;;;;;2.55;75.77;101497.53;4999784;28;20042;-84
2023/04/06 04:17:22;;;;;;;27.73;13.80;;;;;;;2.61;75.78;101512.59;4987876;28;20064;-84
2023/04/06 04:19:47;;;;;;;30.15;14.43;;;;;;;2.60;74.64;101513.53;4957441;28;20034;-84
2023/04/06 04:22:14;;;;;;;29.65;13.80;;;;;;;2.62;73.73;101509.88;4974809;28;20037;-84
2023/04/06 04:24:40;;;;;;;27.63;14.13;;;;;;;2.65;73.77;101515.16;4985519;28;20049;-84
2023/04/06 04:27:05;;;;;;;26.85;14.32;;;;;;;2.65;74.33;101512.47;4970259;28;20069;-84
2023/04/06 04:29:32;;;;;;;28.38;13.77;;;;;;;2.62;73.91;101499.16;4984763;28;20460;-84
2023/04/06 04:32:02;;;;;;;35.70;13.15;;;;;;;2.66;74.50;101506.19;4988434;28;20034;-84
2023/04/06 04:34:29;;;;;;;25.92;12.77;;;;;;;2.66;73.30;101505.28;4986149;28;20070;-84
2023/04/06 04:36:55;;;;;;;26.77;13.82;;;;;;;2.66;74.07;101507.97;4983177;28;20664;-84
2023/04/06 04:39:30;;;;;;;23.48;12.85;;;;;;;2.68;73.56;101509.69;4972829;28;20466;-84
2023/04/06 04:42:01;;;;;;;28.27;13.20;;;;;;;2.70;73.24;101515.91;4972355;28;20555;-84
2023/04/06 04:44:27;;;;;;;28.42;13.52;;;;;;;2.72;72.65;101508.69;4986780;28;20034;-84
2023/04/06 04:46:53;;;;;;;29.10;13.18;;;;;;;2.76;73.11;101506.81;4987967;28;20386;-84
2023/04/06 04:49:23;;;;;;;29.85;14.25;;;;;;;2.73;73.49;101497.00;4974263;28;20038;-84
2023/04/06 04:51:52;;;;;;;28.45;13.40;;;;;;;2.77;73.20;101495.13;4971991;28;20034;-84
2023/04/06 04:54:23;;;;;;;27.10;13.82;;;;;;;2.77;73.34;101489.75;4985855;28;20054;-84
2023/04/06 04:56:50;;;;;;;25.15;13.38;;;;;;;2.84;73.16;101504.75;4972257;28;20057;-84
2023/04/06 04:59:24;;;;;;;25.80;11.50;;;;;;;2.87;72.24;101493.03;5001574;28;20097;-84
2023/04/06 05:01:56;;;;;;;25.83;13.67;;;;;;;2.89;74.24;101500.16;4989901;28;20030;-84
2023/04/06 05:04:28;;;;;;;23.67;12.43;;;;;;;2.89;72.85;101492.09;4990716;28;20323;-84
2023/04/06 05:07:09;;;;;;;25.85;13.50;;;;;;;2.94;74.24;101494.63;4986393;28;20038;-84
2023/04/06 05:09:37;;;;;;;27.88;13.88;;;;;;;2.88;74.55;101489.41;4972263;28;20117;-84
2023/04/06 05:12:03;;;;;;;24.70;12.85;;;;;;;2.92;75.40;101486.59;5000023;28;20072;-84
2023/04/06 05:14:33;;;;;;;22.92;12.85;;;;;;;2.99;75.29;101500.75;4980065;28;20030;-83
2023/04/06 05:17:01;;;;;;;25.60;13.00;;;;;;;3.02;75.13;101497.94;5002295;28;20426;-84
2023/04/06 05:19:26;;;;;;;27.60;12.90;;;;;;;3.05;75.29;101495.16;4990910;28;20213;-84
2023/04/06 05:21:51;;;;;;;24.58;12.93;;;;;;;3.11;74.95;101494.09;4975413;28;20026;-83
2023/04/06 05:24:17;;;;;;;24.75;13.55;;;;;;;3.11;74.80;101489.59;4976394;28;20038;-83
2023/04/06 05:26:44;;;;;;;28.10;14.57;;;;;;;3.14;76.46;101492.19;4991884;28;20038;-84
2023/04/06 05:29:18;;;;;;;29.00;14.07;;;;;;;3.17;76.50;101494.78;4997550;28;20434;-84
2023/04/06 05:31:44;;;;;;;26.17;14.13;;;;;;;3.20;76.68;101497.38;4996921;28;20058;-84
2023/04/06 05:34:10;;;;;;;30.17;14.23;;;;;;;3.18;77.16;101487.59;5005581;28;20033;-84
2023/04/06 05:36:37;;;;;;;28.40;14.38;;;;;;;3.25;76.29;101494.53;4991730;28;20131;-83
2023/04/06 05:39:08;;;;;;;27.27;14.23;;;;;;;3.23;77.95;101485.66;4972528;28;20612;-84
2023/04/06 05:41:39;;;;;;;26.42;14.13;;;;;;;3.26;76.91;101498.97;4989807;28;20026;-83
2023/04/06 05:44:07;;;;;;;23.42;13.32;;;;;;;3.28;76.63;101492.63;4990488;28;20065;-84
2023/04/06 05:46:32;;;;;;;28.17;14.65;;;;;;;3.29;76.60;101489.00;4974290;28;20405;-84
2023/04/06 05:48:59;;;;;;;33.22;14.30;;;;;;;3.38;76.62;101497.72;4992789;28;20034;-83
2023/04/06 05:51:28;;;;;;;29.27;14.65;;;;;;;3.40;76.96;101491.34;4989546;28;20030;-83
2023/04/06 05:53:53;;;;;;;25.48;13.82;;;;;;;3.43;78.00;101488.56;5010931;28;20056;-83
2023/04/06 05:56:19;;;;;;;29.92;15.15;;;;;;;3.54;76.99;101490.91;4981369;28;20054;-83
2023/04/06 05:58:45;;;;;;;26.85;14.88;;;;;;;3.60;75.85;101492.53;4975008;28;20026;-83
2023/04/06 06:01:13;;;;;;;31.58;15.88;;;;;;;3.65;76.33;101490.56;4975397;28;20028;-82
2023/04/06 06:03:43;;;;;;;27.17;15.25;;;;;;;3.70;77.62;101489.47;5009805;28;20564;-83
2023/04/06 06:06:08;;;;;;;28.85;14.25;;;;;;;3.74;75.72;101480.38;5010097;28;20030;-83
2023/04/06 06:09:01;;;;;;;27.10;14.77;;;;;;;3.83;75.62;101480.06;4988277;28;20034;-83
2023/04/06 06:11:28;;;;;;;29.90;14.18;;;;;;;3.93;74.25;101488.69;4956507;28;20547;-83
2023/04/06 06:13:53;;;;;;;29.02;13.95;;;;;;;4.00;77.13;101500.09;4974893;28;20118;-83
2023/04/06 06:16:19;;;;;;;27.88;14.35;;;;;;;4.09;76.09;101500.66;4991482;28;20053;-83
2023/04/06 06:18:46;;;;;;;28.67;14.18;;;;;;;4.14;75.57;101495.13;4975041;28;20394;-84
2023/04/06 06:21:12;;;;;;;28.67;15.35;;;;;;;4.25;74.75;101498.31;5009435;28;20520;-83
2023/04/06 06:23:39;;;;;;;26.58;13.05;;;;;;;4.36;73.23;101495.25;4975659;28;20070;-82
2023/04/06 06:26:04;;;;;;;28.05;13.40;;;;;;;4.45;72.96;101494.03;4975346;28;20524;-83
2023/04/06 06:28:31;;;;;;;33.97;14.05;;;;;;;4.58;71.83;101500.72;4991099;28;20125;-83
2023/04/06 06:30:56;;;;;;;26.13;12.90;;;;;;;4.66;70.09;101495.03;4988284;28;20554;-83
2023/04/06 06:33:23;;;;;;;28.13;14.23;;;;;;;4.78;71.06;101499.97;4995167;28;20054;-84
2023/04/06 06:35:52;;;;;;;26.42;13.38;;;;;;;4.83;70.77;101496.16;5005580;28;20046;-83
2023/04/06 06:38:17;;;;;;;25.27;12.77;;;;;;;4.93;71.44;101502.06;4994560;28;20141;-83
2023/04/06 06:40:43;;;;;;;25.13;13.02;;;;;;;4.93;69.29;101485.91;4990735;28;20109;-83
2023/04/06 06:43:09;;;;;;;24.33;12.07;;;;;;;5.06;69.04;101499.78;4991121;28;20041;-83
2023/04/06 06:45:45;;;;;;;26.60;12.02;;;;;;;5.11;68.82;101492.41;4974685;28;20506;-83
2023/04/06 06:48:12;;;;;;;28.00;13.43;;;;;;;5.16;67.67;101478.72;4989975;28;20442;-82
2023/04/06 06:50:39;;;;;;;22.38;12.15;;;;;;;5.19;69.28;101484.00;5003098;28;20033;-83
2023/04/06 06:53:04;;;;;;;25.20;13.27;;;;;;;5.25;68.75;101481.06;4993365;28;20060;-83
2023/04/06 06:55:30;;;;;;;23.60;12.77;;;;;;;5.30;69.72;101487.16;4993301;28;20040;-83
2023/04/06 06:57:55;;;;;;;23.15;13.25;;;;;;;5.31;69.48;101487.06;4993558;28;20112;-83
2023/04/06 07:00:21;;;;;;;23.55;13.52;;;;;;;5.37;69.94;101494.94;5004365;28;20161;-83
2023/04/06 07:02:48;;;;;;;24.67;13.23;;;;;;;5.43;68.96;101479.44;5005500;28;20057;-84
2023/04/06 07:05:13;;;;;;;21.98;11.85;;;;;;;5.44;68.85;101481.19;4990073;28;20097;-83
2023/04/06 07:07:39;;;;;;;28.15;14.43;;;;;;;5.46;69.68;101482.03;4991830;28;20034;-83
2023/04/06 07:10:05;;;;;;;25.95;14.15;;;;;;;5.39;69.50;101465.19;4990554;28;20042;-83
2023/04/06 07:12:30;;;;;;;23.35;12.50;;;;;;;5.52;68.26;101479.06;4989889;28;20062;-84
2023/04/06 07:14:55;;;;;;;26.65;13.55;;;;;;;5.59;69.39;101478.72;4989193;28;20046;-83
2023/04/06 07:17:21;;;;;;;25.67;12.90;;;;;;;5.66;67.67;101478.50;4989635;28;20056;-83
2023/04/06 07:19:46;;;;;;;26.13;13.10;;;;;;;5.66;68.60;101478.50;5000595;28;20034;-83
2023/04/06 07:22:12;;;;;;;22.23;12.85;;;;;;;5.72;66.43;101473.69;4974704;28;20084;-84
2023/04/06 07:24:37;;;;;;;25.60;12.63;;;;;;;5.81;66.79;101480.53;4973859;28;20390;-84
2023/04/06 07:27:03;;;;;;;26.33;12.75;;;;;;;5.88;67.41;101485.63;4973796;28;20132;-84
2023/04/06 07:29:29;;;;;;;24.88;13.13;;;;;;;5.91;66.78;101473.78;4989852;28;20414;-83
2023/04/06 07:31:55;;;;;;;26.83;13.70;;;;;;;5.99;67.14;101482.47;4972783;28;20041;-83
2023/04/06 07:34:22;;;;;;;26.42;13.25;;;;;;;6.08;69.47;101479.38;4987967;28;20144;-83
2023/04/06 07:36:48;;;;;;;26.15;13.00;;;;;;;6.17;68.38;101475.41;4991440;28;20029;-83
2023/04/06 07:39:14;;;;;;;23.90;13.55;;;;;;;6.28;67.59;101474.91;4993277;28;20087;-83
2023/04/06 07:41:40;;;;;;;25.75;13.80;;;;;;;6.34;67.17;101466.53;4992735;28;20121;-83
2023/04/06 07:44:05;;;;;;;27.40;13.07;;;;;;;6.45;67.67;101468.78;5009098;28;20180;-83
2023/04/06 07:46:33;;;;;;;22.05;12.85;;;;;;;6.50;66.19;101469.44;4988500;28;20121;-83
2023/04/06 07:49:00;;;;;;;24.02;12.27;;;;;;;6.55;66.59;101464.69;4988809;28;20399;-83
2023/04/06 07:51:28;;;;;;;25.75;13.35;;;;;;;6.56;66.08;101464.63;4974696;28;20402;-83
2023/04/06 07:53:54;;;;;;;23.73;12.27;;;;;;;6.64;66.02;101466.97;4988807;28;20038;-83
2023/04/06 07:56:21;;;;;;;26.35;14.18;;;;;;;6.71;66.12;101467.56;4988698;28;20136;-83
2023/04/06 07:58:46;;;;;;;28.98;14.35;;;;;;;6.73;65.49;101469.25;4988559;28;20034;-83
2023/04/06 08:01:12;;;;;;;22.83;11.88;;;;;;;6.81;64.91;101471.63;4987949;28;20049;-83
2023/04/06 08:03:38;;;;;;;26.90;13.40;;;;;;;6.88;65.02;101476.66;4990112;28;20034;-83
2023/04/06 08:06:04;;;;;;;28.42;13.55;;;;;;;6.93;64.95;101467.44;4982741;28;20084;-83
2023/04/06 08:08:30;;;;;;;27.13;12.77;;;;;;;7.02;65.80;101480.53;5004600;28;20440;-83
2023/04/06 08:10:56;;;;;;;26.13;13.40;;;;;;;6.98;64.05;101468.97;4999651;28;20044;-83
2023/04/06 08:13:21;;;;;;;25.27;13.73;;;;;;;7.11;66.30;101472.84;4972513;28;20114;-83
2023/04/06 08:15:47;;;;;;;23.38;13.02;;;;;;;7.21;66.08;101481.41;4987267;28;20048;-83
2023/04/06 08:18:12;;;;;;;24.90;13.40;;;;;;;7.27;66.79;101474.81;4988565;28;20453;-83
2023/04/06 08:20:38;;;;;;;27.48;13.18;;;;;;;7.41;66.56;101481.31;4971937;28;20747;-83
2023/04/06 08:23:03;;;;;;;24.23;13.70;;;;;;;7.47;66.73;101466.59;5003246;28;20149;-83
2023/04/06 08:25:29;;;;;;;22.25;13.15;;;;;;;7.54;65.12;101468.03;5007004;28;20049;-83
2023/04/06 08:27:55;;;;;;;25.55;13.82;;;;;;;7.62;66.63;101473.94;5007760;28;20057;-83
2023/04/06 08:30:21;;;;;;;29.73;14.88;;;;;;;7.65;64.65;101476.53;5007584;28;20034;-83
2023/04/06 08:32:46;;;;;;;25.80;13.43;;;;;;;7.65;65.03;101473.81;4974416;28;20097;-83
2023/04/06 08:35:11;;;;;;;27.25;13.35;;;;;;;7.68;63.82;101480.88;4981152;28;20033;-84
2023/04/06 08:37:37;;;;;;;22.85;11.70;;;;;;;7.72;63.70;101485.19;4989899;28;20042;-82
2023/04/06 08:40:03;;;;;;;24.15;11.63;;;;;;;7.78;65.08;101489.41;4991864;28;20385;-83
2023/04/06 08:42:32;;;;;;;24.85;14.05;;;;;;;7.91;65.27;101482.44;4991366;28;20061;-83
2023/04/06 08:44:58;;;;;;;24.35;13.15;;;;;;;7.95;65.90;101477.75;5004060;28;20037;-83
2023/04/06 08:47:24;;;;;;;26.98;13.23;;;;;;;8.01;65.36;101474.69;4987006;28;20030;-82
2023/04/06 08:49:50;;;;;;;25.52;12.85;;;;;;;8.10;63.90;101483.22;4990768;28;20093;-83
2023/04/06 08:52:18;;;;;;;20.20;10.73;;;;;;;8.12;64.85;101486.75;5000066;28;20447;-83
2023/04/06 08:54:43;;;;;;;25.08;13.63;;;;;;;8.17;65.68;101478.38;4988828;28;20431;-83
2023/04/06 08:57:09;;;;;;;21.40;11.93;;;;;;;8.30;65.94;101487.63;4971816;28;20079;-83
2023/04/06 08:59:36;;;;;;;25.50;13.57;;;;;;;8.33;64.93;101478.44;4971215;28;20057;-84
2023/04/06 09:02:05;;;;;;;26.17;13.18;;;;;;;8.40;64.68;101480.78;4970942;28;20038;-83
2023/04/06 09:04:32;;;;;;;24.42;13.60;;;;;;;8.56;65.34;101485.38;4984956;28;20480;-83
2023/04/06 09:06:57;;;;;;;23.92;13.63;;;;;;;8.65;64.98;101488.47;5003365;28;20383;-83
2023/04/06 09:09:24;;;;;;;22.77;13.43;;;;;;;8.79;66.74;101476.88;4972191;28;20049;-83
2023/04/06 09:11:51;;;;;;;23.15;13.52;;;;;;;8.97;65.68;101484.97;5004077;28;20049;-83
2023/04/06 09:14:37;;;;;;;27.52;13.38;;;;;;;9.05;65.43;101482.72;4998118;28;20049;-83
2023/04/06 09:17:03;;;;;;;22.65;13.38;;;;;;;9.23;66.12;101502.50;5008766;28;20038;-83
2023/04/06 09:19:28;;;;;;;26.63;13.32;;;;;;;9.27;64.93;101487.78;4990527;28;20092;-83
2023/04/06 09:22:06;;;;;;;24.25;12.65;;;;;;;9.46;65.85;101491.19;5003060;28;20113;-83
2023/04/06 09:24:46;;;;;;;21.88;12.50;;;;;;;9.55;65.10;101497.94;4972987;28;20405;-83
2023/04/06 09:27:12;;;;;;;25.38;13.07;;;;;;;9.58;65.70;101493.22;4989682;28;20046;-83
2023/04/06 09:29:38;;;;;;;23.98;13.90;;;;;;;9.63;67.16;101485.69;4986478;28;20056;-82
2023/04/06 09:32:10;;;;;;;22.33;12.93;;;;;;;9.69;66.05;101482.59;5007498;28;20037;-83
2023/04/06 09:34:40;;;;;;;21.90;12.37;;;;;;;9.68;64.55;101493.56;4988123;28;20034;-84
2023/04/06 09:37:15;;;;;;;26.25;13.55;;;;;;;9.65;66.66;101489.19;4970759;28;20069;-83
2023/04/06 09:39:41;;;;;;;24.42;13.77;;;;;;;9.69;67.67;101479.88;4971422;28;20042;-83
2023/04/06 09:42:07;;;;;;;19.40;11.77;;;;;;;9.76;66.10;101482.25;4988211;28;20528;-83
2023/04/06 09:44:32;;;;;;;25.85;12.77;;;;;;;9.83;66.24;101481.78;4971354;28;20045;-84
2023/04/06 09:46:58;;;;;;;20.45;12.05;;;;;;;9.91;67.82;101484.06;4967159;28;20077;-83
2023/04/06 09:49:26;;;;;;;20.02;11.70;;;;;;;9.86;65.71;101484.31;4999486;28;20064;-83
2023/04/06 09:51:58;;;;;;;22.52;11.98;;;;;;;9.93;67.39;101488.44;4989536;28;20481;-82
2023/04/06 09:54:28;;;;;;;21.08;11.40;;;;;;;9.85;67.31;101484.44;4990563;28;20387;-84
2023/04/06 09:57:20;;;;;;;24.77;11.93;;;;;;;9.81;68.57;101489.16;5006824;28;20541;-82
2023/04/06 09:59:54;;;;;;;21.20;12.30;;;;;;;9.82;68.69;101485.47;5006379;28;20478;-84
2023/04/06 10:02:52;;;;;;;21.52;11.60;;;;;;;9.72;68.16;101486.97;4988193;28;20399;-83
2023/04/06 10:05:33;;;;;;;19.02;10.32;;;;;;;9.62;68.48;101485.78;4963243;28;20051;-83
2023/04/06 10:08:05;;;;;;;17.58;9.80;;;;;;;9.56;70.49;101487.00;4980889;28;20436;-83
2023/04/06 10:10:31;;;;;;;17.75;10.27;;;;;;;9.48;71.69;101480.28;4980240;28;20592;-83
2023/04/06 10:12:57;;;;;;;18.85;10.18;;;;;;;9.41;69.40;101490.59;5010388;28;20550;-83
2023/04/06 10:15:24;;;;;;;15.80;9.55;;;;;;;9.35;72.80;101493.66;5011170;28;20370;-83
2023/04/06 10:17:49;;;;;;;14.77;8.20;;;;;;;9.33;73.23;101485.63;5003845;28;20034;-83
2023/04/06 10:20:29;;;;;;;17.50;8.65;;;;;;;9.41;74.14;101486.03;4990155;28;20034;-83
2023/04/06 10:23:19;;;;;;;14.27;8.73;;;;;;;9.48;73.29;101489.28;5004157;28;20037;-83
2023/04/06 10:25:56;;;;;;;15.50;8.70;;;;;;;9.58;73.53;101495.94;5009922;28;20034;-82
2023/04/06 10:28:22;;;;;;;15.43;8.40;;;;;;;9.60;73.77;101493.13;5011412;28;20120;-82
2023/04/06 10:30:48;;;;;;;13.98;7.70;;;;;;;9.50;74.06;101489.19;5009054;28;20578;-82
2023/04/06 10:33:17;;;;;;;15.35;8.07;;;;;;;9.43;72.29;101494.13;5001260;28;20113;-82
2023/04/06 10:35:43;;;;;;;14.65;8.60;;;;;;;9.34;74.11;101494.63;4982673;28;20528;-83
2023/04/06 10:38:09;;;;;;;16.50;9.15;;;;;;;9.29;74.36;101494.03;5003344;28;20092;-82
2023/04/06 10:40:39;;;;;;;16.85;8.23;;;;;;;9.25;74.83;101495.16;5011752;28;20041;-83
2023/04/06 10:43:08;;;;;;;14.57;7.22;;;;;;;9.18;75.50;101503.63;4994428;28;20034;-83
2023/04/06 10:45:35;;;;;;;15.40;7.53;;;;;;;9.11;74.79;101495.94;4992707;28;20070;-83
2023/04/06 10:48:12;;;;;;;14.65;8.18;;;;;;;8.99;75.38;101489.34;4991401;28;20042;-82
2023/04/06 10:50:39;;;;;;;13.88;7.57;;;;;;;9.01;76.39;101490.16;5008634;28;20037;-81
2023/04/06 10:53:06;;;;;;;14.60;7.50;;;;;;;9.02;77.50;101481.03;4996303;28;20114;-82
2023/04/06 10:55:31;;;;;;;14.57;7.75;;;;;;;9.00;78.18;101484.78;4990786;28;20053;-82
2023/04/06 10:57:57;;;;;;;11.77;7.22;;;;;;;8.92;77.72;101471.66;4990941;28;20042;-82
2023/04/06 11:00:22;;;;;;;16.13;7.70;;;;;;;8.92;78.50;101479.81;5003478;28;20073;-82
2023/04/06 11:02:48;;;;;;;13.85;7.93;;;;;;;8.84;77.64;101466.66;5009769;28;20422;-82
2023/04/06 11:05:14;;;;;;;14.45;7.30;;;;;;;8.92;78.20;101477.09;5001540;28;20062;-82
2023/04/06 11:07:41;;;;;;;12.95;7.05;;;;;;;8.92;78.91;101467.09;4974183;28;20049;-82
2023/04/06 11:10:07;;;;;;;14.20;7.50;;;;;;;8.97;79.51;101472.28;4990967;28;20044;-81
2023/04/06 11:12:34;;;;;;;15.27;6.78;;;;;;;8.91;80.55;101459.06;4990902;28;20057;-81
2023/04/06 11:15:06;;;;;;;17.33;7.35;;;;;;;8.98;80.64;101463.16;4990093;28;20593;-81
2023/04/06 11:17:33;;;;;;;;;;;;;;;9.03;78.50;101471.91;4981435;28;20113;-81
2023/04/06 11:19:58;;;;;;;11.73;6.47;;;;;;;8.85;79.66;101465.69;4989835;28;19928;-82
2023/04/06 11:22:25;;;;;;;14.57;7.43;;;;;;;8.73;80.52;101463.66;4997759;28;20030;-82